Time;durP1;ratioP1;P1;durP2;ratioP2;P2;SDS_P1;SDS_P2;PMS_P1;PMS_P2;Temp;Humidity;BMP_temperature;BMP_pressure;BME280_temperature;BME280_humidity;BME280_pressure;Samples;Min_cycle;Max_cycle;Signal;HPM_P1;HPM_P2
2021/08/04 00:02:23;;;;;;;4.93;3.42;;;18.20;75.10;;;;;;5033621;28;20061;-84
2021/08/04 00:04:49;;;;;;;11.43;4.55;;;18.20;75.00;;;;;;5038996;28;20037;-82
2021/08/04 00:07:15;;;;;;;6.30;4.38;;;18.20;75.00;;;;;;5041815;28;20229;-82
2021/08/04 00:09:42;;;;;;;8.48;4.13;;;18.20;75.00;;;;;;5039856;28;20028;-83
2021/08/04 00:12:08;;;;;;;9.43;4.50;;;18.20;75.00;;;;;;5033323;28;20041;-84
2021/08/04 00:14:34;;;;;;;6.72;3.78;;;18.10;75.70;;;;;;5029205;28;20037;-83
2021/08/04 00:17:00;;;;;;;6.65;3.72;;;18.10;75.60;;;;;;5029259;28;20029;-83
2021/08/04 00:19:26;;;;;;;4.53;3.65;;;18.10;75.40;;;;;;5026456;28;20033;-84
2021/08/04 00:21:51;;;;;;;9.32;3.97;;;18.00;75.40;;;;;;5028117;28;20129;-84
2021/08/04 00:24:17;;;;;;;7.82;3.67;;;18.00;75.80;;;;;;5024177;28;20026;-83
2021/08/04 00:26:43;;;;;;;7.50;4.15;;;18.00;76.00;;;;;;5028307;28;20021;-83
2021/08/04 00:29:09;;;;;;;7.13;4.00;;;18.00;76.20;;;;;;5024136;28;20024;-83
2021/08/04 00:31:35;;;;;;;7.63;3.38;;;17.90;76.50;;;;;;5024977;28;20021;-83
2021/08/04 00:34:01;;;;;;;5.53;3.60;;;17.80;77.20;;;;;;5013472;28;20395;-85
2021/08/04 00:36:27;;;;;;;5.13;3.40;;;17.80;77.00;;;;;;5028185;28;20032;-82
2021/08/04 00:38:53;;;;;;;12.45;4.60;;;17.80;77.50;;;;;;5031912;28;20033;-83
2021/08/04 00:41:20;;;;;;;6.57;3.50;;;17.80;77.60;;;;;;5033256;28;20045;-83
2021/08/04 00:43:46;;;;;;;6.88;3.55;;;17.80;77.50;;;;;;5032932;28;20087;-84
2021/08/04 00:46:14;;;;;;;8.27;3.78;;;17.80;77.70;;;;;;5021937;28;20480;-84
2021/08/04 00:48:40;;;;;;;4.90;3.25;;;17.80;77.80;;;;;;5027219;28;20026;-83
2021/08/04 00:51:06;;;;;;;7.25;3.80;;;17.80;77.80;;;;;;5022871;28;20092;-84
2021/08/04 00:53:32;;;;;;;10.52;2.90;;;17.70;77.70;;;;;;5032862;28;20025;-84
2021/08/04 00:56:00;;;;;;;7.22;4.03;;;17.70;77.50;;;;;;5033492;28;20075;-83
2021/08/04 00:58:36;;;;;;;8.25;3.33;;;17.70;77.90;;;;;;5032929;28;20041;-83
2021/08/04 01:01:15;;;;;;;8.80;3.88;;;17.70;78.20;;;;;;5033074;28;20096;-84
2021/08/04 01:03:46;;;;;;;3.75;2.53;;;17.70;78.20;;;;;;5032658;28;20044;-83
2021/08/04 01:06:18;;;;;;;7.75;3.88;;;17.70;78.30;;;;;;5032829;28;20439;-81
2021/08/04 01:08:54;;;;;;;4.53;3.50;;;17.60;78.10;;;;;;5032634;28;20486;-84
2021/08/04 01:11:22;;;;;;;5.57;3.17;;;17.60;78.40;;;;;;5032743;28;20017;-84
2021/08/04 01:13:51;;;;;;;7.88;3.72;;;17.60;78.60;;;;;;5032260;28;20046;-83
2021/08/04 01:16:25;;;;;;;4.38;2.80;;;17.60;79.20;;;;;;5025740;28;20014;-83
2021/08/04 01:19:06;;;;;;;4.97;3.40;;;17.50;79.20;;;;;;5027067;28;20037;-83
2021/08/04 01:22:12;;;;;;;10.73;3.15;;;17.50;79.70;;;;;;5032914;28;20026;-84
2021/08/04 01:25:14;;;;;;;6.20;3.42;;;17.40;79.50;;;;;;5028322;28;20046;-83
2021/08/04 01:27:47;;;;;;;5.78;3.15;;;17.40;80.10;;;;;;5029416;28;20061;-83
2021/08/04 01:30:13;;;;;;;9.15;3.83;;;17.30;80.70;;;;;;5032155;28;20061;-85
2021/08/04 01:32:40;;;;;;;6.30;3.58;;;;;;;;;;5044328;28;20021;-83
2021/08/04 01:35:08;;;;;;;4.43;3.80;;;17.20;80.90;;;;;;5014472;28;20021;-82
2021/08/04 01:37:36;;;;;;;6.88;3.58;;;17.20;81.30;;;;;;5022806;28;20022;-83
2021/08/04 01:40:02;;;;;;;10.65;4.00;;;17.20;81.50;;;;;;5032182;28;20475;-82
2021/08/04 01:42:34;;;;;;;7.05;3.53;;;17.10;81.80;;;;;;5030965;28;20397;-83
2021/08/04 01:45:00;;;;;;;8.07;3.92;;;17.10;81.80;;;;;;5030729;28;20064;-82
2021/08/04 01:47:28;;;;;;;12.82;3.70;;;17.00;81.90;;;;;;5032328;28;20037;-82
2021/08/04 01:49:54;;;;;;;6.00;3.65;;;17.00;82.30;;;;;;5032409;28;20029;-81
2021/08/04 01:52:20;;;;;;;6.95;3.80;;;17.00;82.50;;;;;;5026668;28;20025;-83
2021/08/04 01:54:46;;;;;;;7.65;3.58;;;17.00;82.60;;;;;;5025965;28;20035;-82
2021/08/04 01:57:12;;;;;;;6.47;4.20;;;17.00;82.60;;;;;;5034715;28;20097;-81
2021/08/04 01:59:39;;;;;;;7.63;3.63;;;17.00;82.60;;;;;;5040375;28;20512;-82
2021/08/04 02:02:20;;;;;;;4.93;3.55;;;17.00;82.70;;;;;;5039707;28;20026;-84
2021/08/04 02:04:45;;;;;;;4.53;3.50;;;17.00;83.10;;;;;;5032221;28;20048;-82
2021/08/04 02:07:36;;;;;;;11.75;4.05;;;17.00;83.40;;;;;;5032188;28;20096;-82
2021/08/04 02:10:07;;;;;;;7.80;3.95;;;17.00;83.80;;;;;;5031801;28;20034;-83
2021/08/04 02:12:41;;;;;;;5.63;3.55;;;17.00;83.60;;;;;;5016042;28;20050;-84
2021/08/04 02:15:12;;;;;;;5.05;3.95;;;17.00;83.60;;;;;;4995388;28;20050;-84
2021/08/04 02:17:39;;;;;;;5.38;3.85;;;17.00;83.80;;;;;;5016211;28;20014;-82
2021/08/04 02:20:26;;;;;;;5.68;3.80;;;17.00;83.80;;;;;;5022516;28;20422;-81
2021/08/04 02:23:03;;;;;;;5.95;4.40;;;17.00;83.70;;;;;;5016817;28;20025;-83
2021/08/04 02:25:38;;;;;;;7.75;3.95;;;17.10;83.80;;;;;;5014792;28;20423;-84
2021/08/04 02:28:08;;;;;;;8.38;4.13;;;17.10;83.70;;;;;;4999705;28;20559;-82
2021/08/04 02:30:35;;;;;;;5.47;3.97;;;17.10;83.90;;;;;;4999101;28;20026;-83
2021/08/04 02:33:02;;;;;;;9.25;4.10;;;17.10;83.60;;;;;;5014551;28;20037;-83
2021/08/04 02:35:28;;;;;;;6.88;4.18;;;17.10;83.60;;;;;;5015907;28;20480;-83
2021/08/04 02:37:54;;;;;;;5.97;3.40;;;17.20;83.40;;;;;;5015805;28;20041;-83
2021/08/04 02:40:20;;;;;;;7.20;4.15;;;17.20;83.50;;;;;;5015525;28;20018;-84
2021/08/04 02:42:48;;;;;;;7.75;4.18;;;17.20;83.50;;;;;;5015563;28;20495;-84
2021/08/04 02:45:14;;;;;;;6.72;3.47;;;17.30;83.20;;;;;;5029477;28;20065;-83
2021/08/04 02:47:40;;;;;;;7.43;3.92;;;17.30;83.10;;;;;;5015763;28;20065;-85
2021/08/04 02:50:07;;;;;;;8.82;4.20;;;17.40;82.90;;;;;;5015443;28;20029;-85
2021/08/04 02:52:34;;;;;;;9.57;4.40;;;17.40;82.60;;;;;;5015380;28;20100;-84
2021/08/04 02:55:01;;;;;;;5.25;3.63;;;17.50;82.40;;;;;;5015454;28;20029;-85
2021/08/04 02:57:27;;;;;;;5.90;3.30;;;17.60;82.20;;;;;;5016159;28;20029;-85
2021/08/04 02:59:53;;;;;;;9.18;4.25;;;17.70;81.70;;;;;;5015996;28;20464;-84
2021/08/04 03:02:19;;;;;;;6.72;3.88;;;17.70;81.40;;;;;;4998311;28;20369;-84
2021/08/04 03:04:45;;;;;;;5.47;3.70;;;17.80;81.50;;;;;;5015984;28;20507;-83
2021/08/04 03:07:10;;;;;;;6.78;3.25;;;17.80;81.20;;;;;;5015264;28;20017;-85
2021/08/04 03:09:36;;;;;;;5.53;3.40;;;17.90;81.10;;;;;;5015498;28;20054;-83
2021/08/04 03:12:03;;;;;;;5.43;3.85;;;18.00;80.20;;;;;;5018133;28;20538;-84
2021/08/04 03:14:29;;;;;;;7.00;3.35;;;18.00;80.00;;;;;;5035394;28;20045;-82
2021/08/04 03:16:54;;;;;;;7.28;5.32;;;18.10;80.10;;;;;;5034955;28;20060;-86
2021/08/04 03:19:20;;;;;;;4.70;3.17;;;18.20;80.00;;;;;;5030493;28;20475;-84
2021/08/04 03:21:46;;;;;;;7.60;4.18;;;18.20;79.50;;;;;;5025292;28;20117;-83
2021/08/04 03:24:12;;;;;;;6.30;3.15;;;18.40;79.50;;;;;;5034406;28;20037;-85
2021/08/04 03:26:38;;;;;;;9.77;3.63;;;18.50;78.70;;;;;;5015000;28;20030;-84
2021/08/04 03:29:04;;;;;;;9.25;3.85;;;18.80;78.20;;;;;;5011214;28;20488;-86
2021/08/04 03:31:30;;;;;;;5.40;3.33;;;19.00;78.10;;;;;;5034645;28;20022;-85
2021/08/04 03:33:56;;;;;;;8.38;3.50;;;19.10;76.10;;;;;;5026241;28;20071;-86
2021/08/04 03:36:23;;;;;;;7.55;3.70;;;19.20;75.00;;;;;;5014019;28;20029;-84
2021/08/04 03:38:49;;;;;;;5.80;3.10;;;19.10;74.90;;;;;;5034748;28;20068;-86
2021/08/04 03:41:16;;;;;;;7.88;3.92;;;18.90;75.30;;;;;;5035285;28;20063;-85
2021/08/04 03:43:42;;;;;;;10.93;3.83;;;18.90;75.70;;;;;;5035934;28;20029;-86
2021/08/04 03:46:08;;;;;;;6.40;3.42;;;18.80;75.90;;;;;;5035904;28;20083;-89
2021/08/04 03:48:34;;;;;;;7.45;3.60;;;18.80;76.10;;;;;;5035794;28;20017;-86
2021/08/04 03:51:02;;;;;;;7.05;4.10;;;18.80;76.10;;;;;;5035955;28;20032;-87
2021/08/04 03:53:28;;;;;;;6.80;3.38;;;18.90;76.00;;;;;;5036127;28;20021;-87
2021/08/04 03:55:54;;;;;;;5.93;3.15;;;19.00;75.40;;;;;;5028693;28;20025;-88
2021/08/04 03:58:20;;;;;;;5.13;2.72;;;19.00;75.10;;;;;;5028919;28;20454;-87
2021/08/04 04:00:46;;;;;;;5.18;2.95;;;19.10;74.30;;;;;;5035064;28;20067;-87
2021/08/04 04:03:12;;;;;;;5.78;2.83;;;19.10;73.50;;;;;;5034043;28;20059;-87
2021/08/04 04:05:38;;;;;;;3.67;2.60;;;19.20;73.10;;;;;;5034186;28;20040;-85
2021/08/04 04:08:04;;;;;;;5.30;3.03;;;19.30;73.10;;;;;;5024700;28;20022;-85
2021/08/04 04:10:30;;;;;;;7.40;3.20;;;19.50;72.90;;;;;;5029041;28;20028;-85
2021/08/04 04:12:56;;;;;;;5.57;3.50;;;19.70;72.00;;;;;;5034152;28;20041;-85
2021/08/04 04:15:22;;;;;;;3.22;2.53;;;19.70;71.50;;;;;;5034050;28;20120;-85
2021/08/04 04:17:47;;;;;;;6.40;3.25;;;19.60;71.00;;;;;;5018501;28;20028;-85
2021/08/04 04:20:14;;;;;;;4.75;3.30;;;19.50;71.50;;;;;;5031542;28;20039;-85
2021/08/04 04:22:44;;;;;;;5.63;3.35;;;19.50;72.00;;;;;;5002828;28;20021;-86
2021/08/04 04:25:15;;;;;;;8.43;3.17;;;19.50;71.80;;;;;;5001180;28;20105;-85
2021/08/04 04:27:42;;;;;;;7.88;3.03;;;19.50;71.60;;;;;;5018116;28;20010;-86
2021/08/04 04:30:10;;;;;;;5.35;2.80;;;19.50;71.70;;;;;;5028417;28;20025;-85
2021/08/04 04:32:36;;;;;;;3.33;2.58;;;19.50;71.50;;;;;;5020829;28;20029;-85
2021/08/04 04:35:03;;;;;;;6.53;2.97;;;19.60;72.20;;;;;;5049095;28;20014;-83
2021/08/04 04:37:28;;;;;;;7.07;2.97;;;19.60;72.00;;;;;;5041113;28;20017;-87
2021/08/04 04:39:54;;;;;;;7.90;3.03;;;19.70;71.40;;;;;;5033825;28;20053;-85
2021/08/04 04:42:20;;;;;;;13.57;3.03;;;19.80;71.80;;;;;;5033459;28;20022;-88
2021/08/04 04:44:46;;;;;;;3.33;2.70;;;19.90;70.80;;;;;;5033611;28;20461;-86
2021/08/04 04:47:12;;;;;;;7.50;3.00;;;19.90;69.50;;;;;;5033362;28;20017;-85
2021/08/04 04:49:38;;;;;;;6.00;3.88;;;19.90;69.40;;;;;;5034591;28;20083;-86
2021/08/04 04:52:04;;;;;;;6.57;2.60;;;20.00;70.00;;;;;;5006074;28;20067;-87
2021/08/04 04:54:30;;;;;;;6.63;3.17;;;20.00;70.70;;;;;;5017286;28;20061;-85
2021/08/04 04:56:56;;;;;;;4.57;2.88;;;20.10;70.20;;;;;;5017131;28;20026;-84
2021/08/04 04:59:22;;;;;;;7.15;3.05;;;20.40;69.50;;;;;;5015248;28;20039;-86
2021/08/04 05:01:47;;;;;;;5.93;2.75;;;21.10;68.10;;;;;;5014037;28;20036;-85
2021/08/04 05:04:14;;;;;;;8.27;3.45;;;22.00;65.70;;;;;;5015883;28;20036;-84
2021/08/04 05:06:40;;;;;;;6.15;3.58;;;23.00;62.30;;;;;;5013507;28;20022;-86
2021/08/04 05:09:06;;;;;;;12.05;3.70;;;23.80;58.70;;;;;;5016754;28;20026;-85
2021/08/04 05:11:32;;;;;;;9.93;3.10;;;24.60;56.60;;;;;;5015521;28;20021;-85
2021/08/04 05:13:58;;;;;;;3.78;2.75;;;25.40;54.30;;;;;;5028921;28;20045;-87
2021/08/04 05:16:24;;;;;;;4.13;2.92;;;26.00;52.60;;;;;;5005406;28;20061;-84
2021/08/04 05:18:50;;;;;;;4.80;3.13;;;26.60;50.80;;;;;;4998760;28;20053;-85
2021/08/04 05:21:16;;;;;;;5.25;2.78;;;27.00;49.90;;;;;;5009840;28;20105;-85
2021/08/04 05:23:42;;;;;;;3.10;2.35;;;27.50;48.90;;;;;;5017822;28;20056;-85
2021/08/04 05:26:08;;;;;;;4.82;2.35;;;27.90;47.30;;;;;;5017005;28;20029;-85
2021/08/04 05:28:34;;;;;;;3.20;1.95;;;28.50;46.20;;;;;;5013404;28;20471;-84
2021/08/04 05:31:00;;;;;;;6.38;2.35;;;28.60;44.80;;;;;;5000142;28;20043;-85
2021/08/04 05:33:26;;;;;;;4.00;2.30;;;28.50;44.50;;;;;;5015710;28;20101;-85
2021/08/04 05:35:52;;;;;;;5.97;2.08;;;28.80;44.30;;;;;;4997295;28;20081;-84
2021/08/04 05:38:18;;;;;;;3.97;2.35;;;29.00;43.50;;;;;;5015199;28;20541;-85
2021/08/04 05:40:44;;;;;;;4.55;1.90;;;29.10;43.00;;;;;;5013025;28;20105;-85
2021/08/04 05:43:09;;;;;;;6.55;2.33;;;29.30;43.70;;;;;;5013333;28;20022;-86
2021/08/04 05:45:38;;;;;;;9.15;2.65;;;29.90;42.40;;;;;;5014376;28;20387;-85
2021/08/04 05:48:05;;;;;;;4.38;2.15;;;30.50;42.60;;;;;;5013523;28;20510;-84
2021/08/04 05:50:32;;;;;;;5.35;1.48;;;31.10;40.70;;;;;;5013254;28;20449;-87
2021/08/04 05:52:58;;;;;;;3.30;1.90;;;31.30;39.60;;;;;;4995788;28;20113;-87
2021/08/04 05:55:24;;;;;;;6.88;2.30;;;31.60;39.30;;;;;;5013393;28;20026;-86
2021/08/04 05:57:51;;;;;;;6.55;2.53;;;31.90;39.00;;;;;;5020342;28;20096;-86
2021/08/04 06:00:17;;;;;;;5.43;2.00;;;32.30;38.70;;;;;;5017613;28;20025;-85
2021/08/04 06:02:43;;;;;;;2.53;1.70;;;33.00;38.20;;;;;;5016351;28;20022;-85
2021/08/04 06:05:09;;;;;;;4.18;2.05;;;33.80;37.40;;;;;;5016650;28;20033;-86
2021/08/04 06:07:35;;;;;;;6.93;2.03;;;34.80;36.40;;;;;;4998182;28;20087;-87
2021/08/04 06:10:01;;;;;;;2.87;1.80;;;35.60;35.00;;;;;;4998624;28;20042;-85
2021/08/04 06:12:27;;;;;;;5.93;2.27;;;36.00;34.60;;;;;;5002374;28;20357;-85
2021/08/04 06:14:53;;;;;;;7.07;2.03;;;36.40;34.60;;;;;;5035935;28;20074;-86
2021/08/04 06:17:19;;;;;;;4.40;2.17;;;37.00;33.30;;;;;;5036665;28;20267;-84
2021/08/04 06:19:44;;;;;;;12.93;5.53;;;37.20;33.00;;;;;;5018215;28;20187;-84
2021/08/04 06:22:11;;;;;;;4.20;1.90;;;37.20;32.70;;;;;;5036326;28;20342;-87
2021/08/04 06:24:37;;;;;;;8.52;2.47;;;37.40;32.00;;;;;;5017241;28;20045;-85
2021/08/04 06:27:03;;;;;;;5.85;2.33;;;36.90;32.30;;;;;;5035555;28;20440;-84
2021/08/04 06:29:29;;;;;;;4.22;2.40;;;37.20;32.10;;;;;;5024997;28;20030;-86
2021/08/04 06:31:55;;;;;;;3.33;1.75;;;37.60;32.00;;;;;;5035233;28;20029;-86
2021/08/04 06:34:20;;;;;;;6.43;2.03;;;38.30;31.30;;;;;;5037891;28;20455;-82
2021/08/04 06:36:46;;;;;;;8.50;2.10;;;37.90;31.30;;;;;;5010313;28;20026;-83
2021/08/04 06:39:12;;;;;;;8.15;2.47;;;37.90;31.10;;;;;;5037241;28;20053;-87
2021/08/04 06:41:38;;;;;;;3.97;1.70;;;37.50;31.40;;;;;;5037716;28;20049;-83
2021/08/04 06:44:04;;;;;;;8.38;2.63;;;38.00;31.30;;;;;;5035561;28;20036;-84
2021/08/04 06:46:38;;;;;;;3.47;1.83;;;39.10;30.60;;;;;;5035928;28;20033;-84
2021/08/04 06:49:04;;;;;;;4.30;1.38;;;40.00;29.80;;;;;;5015166;28;20037;-84
2021/08/04 06:51:31;;;;;;;4.85;1.70;;;40.10;29.00;;;;;;5047009;28;20348;-82
2021/08/04 06:53:57;;;;;;;2.58;1.50;;;39.10;28.90;;;;;;5040638;28;20064;-85
2021/08/04 06:56:23;;;;;;;3.58;1.77;;;39.10;29.50;;;;;;5017889;28;20430;-85
2021/08/04 06:58:49;;;;;;;3.10;1.80;;;39.00;29.50;;;;;;5017846;28;20120;-85
2021/08/04 07:01:15;;;;;;;4.82;1.80;;;39.60;30.00;;;;;;5035656;28;20447;-87
2021/08/04 07:03:41;;;;;;;4.70;1.67;;;40.10;29.40;;;;;;5035722;28;20041;-84
2021/08/04 07:06:11;;;;;;;3.90;1.67;;;40.30;28.90;;;;;;5038124;28;20536;-85
2021/08/04 07:08:38;;;;;;;5.22;1.73;;;39.10;29.20;;;;;;5048261;28;20036;-83
2021/08/04 07:11:05;;;;;;;2.70;1.23;;;39.10;29.60;;;;;;5042425;28;20021;-85
2021/08/04 07:13:31;;;;;;;3.50;1.63;;;38.60;29.90;;;;;;5023238;28;20050;-85
2021/08/04 07:15:57;;;;;;;2.40;1.50;;;39.40;29.70;;;;;;5005696;28;20018;-84
2021/08/04 07:18:23;;;;;;;4.72;1.40;;;40.40;29.20;;;;;;5027241;28;20044;-85
2021/08/04 07:20:49;;;;;;;5.38;1.73;;;40.90;28.60;;;;;;5026838;28;20017;-84
2021/08/04 07:23:16;;;;;;;2.42;1.42;;;41.10;28.80;;;;;;5021513;28;20030;-87
2021/08/04 07:25:43;;;;;;;6.07;3.00;;;40.80;28.00;;;;;;5003733;28;20061;-85
2021/08/04 07:28:09;;;;;;;2.95;1.42;;;41.10;28.60;;;;;;5023264;28;20368;-84
2021/08/04 07:30:35;;;;;;;5.57;2.10;;;41.60;27.90;;;;;;5028586;28;20036;-85
2021/08/04 07:33:01;;;;;;;1.83;1.10;;;42.30;27.70;;;;;;4998091;28;20036;-82
2021/08/04 07:35:27;;;;;;;;;;;42.40;27.10;;;;;;5015859;28;20387;-85
2021/08/04 07:37:53;;;;;;;1.65;1.17;;;42.20;28.00;;;;;;5014824;28;19912;-84
2021/08/04 07:40:20;;;;;;;4.13;1.73;;;40.80;27.30;;;;;;4997229;28;20079;-84
2021/08/04 07:42:47;;;;;;;4.95;1.60;;;40.40;27.70;;;;;;4997460;28;20092;-84
2021/08/04 07:45:14;;;;;;;4.70;1.58;;;39.10;28.60;;;;;;5014825;28;20034;-85
2021/08/04 07:47:40;;;;;;;6.70;2.00;;;37.90;29.30;;;;;;5016302;28;20406;-85
2021/08/04 07:50:07;;;;;;;7.85;2.05;;;38.10;29.70;;;;;;5016094;28;20097;-85
2021/08/04 07:52:33;;;;;;;3.80;2.00;;;38.80;29.50;;;;;;5015224;28;20026;-84
2021/08/04 07:54:59;;;;;;;7.30;2.17;;;40.00;29.50;;;;;;4998269;28;20044;-86
2021/08/04 07:57:24;;;;;;;4.82;2.13;;;39.80;28.60;;;;;;5014502;28;20356;-84
2021/08/04 07:59:50;;;;;;;7.63;2.70;;;38.90;28.70;;;;;;4997004;28;20026;-85
2021/08/04 08:02:16;;;;;;;5.53;1.83;;;37.70;29.50;;;;;;5014418;28;20026;-85
2021/08/04 08:04:42;;;;;;;11.60;2.57;;;36.50;30.10;;;;;;5014572;28;20507;-84
2021/08/04 08:07:08;;;;;;;9.27;2.47;;;34.70;31.60;;;;;;5014044;28;20598;-85
2021/08/04 08:09:34;;;;;;;5.03;2.03;;;32.80;34.10;;;;;;5014667;28;20495;-85
2021/08/04 08:12:00;;;;;;;12.40;6.20;;;31.90;36.10;;;;;;5016231;28;20018;-85
2021/08/04 08:14:28;;;;;;;6.70;2.17;;;33.20;35.70;;;;;;5034292;28;20037;-84
2021/08/04 08:16:55;;;;;;;2.45;1.77;;;35.10;33.60;;;;;;5016269;28;20025;-84
2021/08/04 08:19:21;;;;;;;3.00;1.50;;;36.10;31.50;;;;;;5034655;28;20044;-83
2021/08/04 08:21:47;;;;;;;3.55;1.67;;;38.00;30.50;;;;;;5016374;28;20017;-84
2021/08/04 08:24:14;;;;;;;3.63;2.10;;;39.30;29.50;;;;;;5033957;28;20077;-83
2021/08/04 08:26:40;;;;;;;;;;;40.20;29.10;;;;;;5041917;28;20033;-86
2021/08/04 08:29:06;;;;;;;5.38;1.80;;;41.60;29.60;;;;;;5033180;28;19952;-84
2021/08/04 08:31:35;;;;;;;4.53;1.88;;;42.90;28.00;;;;;;5033336;28;20113;-84
2021/08/04 08:34:02;;;;;;;4.28;2.00;;;43.00;26.30;;;;;;5034099;28;20034;-84
2021/08/04 08:36:29;;;;;;;8.65;1.90;;;42.20;26.40;;;;;;5033645;28;20017;-85
2021/08/04 08:38:56;;;;;;;5.22;1.85;;;42.00;26.90;;;;;;5034439;28;20025;-82
2021/08/04 08:41:22;;;;;;;5.07;1.63;;;42.30;26.70;;;;;;5039841;28;20033;-84
2021/08/04 08:43:47;;;;;;;;;;;42.50;26.70;;;;;;5034049;28;20039;-84
2021/08/04 08:46:14;;;;;;;4.43;2.00;;;41.70;27.00;;;;;;5034129;28;19937;-84
2021/08/04 08:48:46;;;;;;;5.32;2.15;;;39.70;27.50;;;;;;5034091;28;20022;-84
2021/08/04 08:51:18;;;;;;;5.13;2.35;;;39.40;28.10;;;;;;5034538;28;20060;-83
2021/08/04 08:53:45;;;;;;;3.65;1.85;;;39.80;27.90;;;;;;5033593;28;20018;-83
2021/08/04 08:56:14;;;;;;;8.45;2.47;;;39.30;27.90;;;;;;5033740;28;20043;-83
2021/08/04 08:58:41;;;;;;;4.22;1.90;;;37.70;29.00;;;;;;5016472;28;20071;-84
2021/08/04 09:01:07;;;;;;;;;;;34.90;29.60;;;;;;5034111;28;20017;-85
2021/08/04 09:03:33;;;;;;;6.43;2.63;;;34.70;31.50;;;;;;5033320;28;19920;-85
2021/08/04 09:05:59;;;;;;;9.57;2.65;;;35.40;31.10;;;;;;5034183;28;20109;-85
2021/08/04 09:08:33;;;;;;;6.85;2.42;;;36.80;30.40;;;;;;5035506;28;20079;-85
2021/08/04 09:11:12;;;;;;;4.00;1.98;;;37.60;29.50;;;;;;5046695;28;20029;-83
2021/08/04 09:13:38;;;;;;;3.05;1.40;;;38.10;29.10;;;;;;5032381;28;20414;-86
2021/08/04 09:16:06;;;;;;;5.65;1.50;;;38.70;28.60;;;;;;5031860;28;20391;-84
2021/08/04 09:18:58;;;;;;;5.22;2.20;;;39.60;27.60;;;;;;5031483;28;20356;-86
2021/08/04 09:21:24;;;;;;;2.83;1.73;;;40.10;27.90;;;;;;5027347;28;20032;-85
2021/08/04 09:23:52;;;;;;;5.10;1.48;;;39.70;27.00;;;;;;5025737;28;20037;-86
2021/08/04 09:26:25;;;;;;;3.50;1.60;;;38.70;28.00;;;;;;5033181;28;20026;-85
2021/08/04 09:29:00;;;;;;;2.17;1.38;;;38.90;28.10;;;;;;5033960;28;20025;-84
2021/08/04 09:31:49;;;;;;;1.70;1.30;;;39.70;28.10;;;;;;5031443;28;20367;-85
2021/08/04 09:34:39;;;;;;;1.13;0.73;;;40.80;27.10;;;;;;5034703;28;20494;-83
2021/08/04 09:37:07;;;;;;;4.47;1.50;;;41.40;26.70;;;;;;5023754;28;20025;-85
2021/08/04 09:39:35;;;;;;;3.15;1.30;;;41.80;26.10;;;;;;5037526;28;20021;-85
2021/08/04 09:42:01;;;;;;;1.80;1.17;;;42.40;25.90;;;;;;5035898;28;20022;-84
2021/08/04 09:44:28;;;;;;;2.38;1.35;;;43.40;25.50;;;;;;5036864;28;20465;-86
2021/08/04 09:47:12;;;;;;;4.03;1.10;;;43.00;25.10;;;;;;5037140;28;20462;-83
2021/08/04 09:49:39;;;;;;;2.42;1.50;;;42.50;25.60;;;;;;5036495;28;20030;-84
2021/08/04 09:52:10;;;;;;;3.00;1.40;;;42.10;25.50;;;;;;5036989;28;20018;-83
2021/08/04 09:54:43;;;;;;;2.45;1.70;;;41.30;26.00;;;;;;5036970;28;20471;-84
2021/08/04 09:57:11;;;;;;;5.15;1.70;;;41.80;26.00;;;;;;5037181;28;20018;-84
2021/08/04 09:59:37;;;;;;;4.00;1.30;;;40.00;26.50;;;;;;5038431;28;20032;-84
2021/08/04 10:02:05;;;;;;;1.48;1.10;;;39.60;27.40;;;;;;5041045;28;20045;-83
2021/08/04 10:04:31;;;;;;;3.38;1.30;;;40.70;27.50;;;;;;5042115;28;20033;-85
2021/08/04 10:07:08;;;;;;;5.03;1.27;;;41.60;26.60;;;;;;5038048;28;20087;-84
2021/08/04 10:09:35;;;;;;;1.58;1.00;;;42.20;26.00;;;;;;5037776;28;20109;-84
2021/08/04 10:12:03;;;;;;;2.90;1.15;;;41.90;25.90;;;;;;5040876;28;20025;-85
2021/08/04 10:14:30;;;;;;;3.08;1.40;;;42.10;25.60;;;;;;5044772;28;20483;-85
2021/08/04 10:16:56;;;;;;;3.13;1.48;;;41.60;25.90;;;;;;5035592;28;20049;-87
2021/08/04 10:19:30;;;;;;;3.70;1.85;;;40.70;25.80;;;;;;5022237;28;20021;-84
2021/08/04 10:21:56;;;;;;;2.67;2.10;;;39.60;26.70;;;;;;5016646;28;20022;-83
2021/08/04 10:24:22;;;;;;;;;;;38.80;27.50;;;;;;5032558;28;20038;-84
2021/08/04 10:26:48;;;;;;;2.97;1.50;;;39.50;27.90;;;;;;5024618;28;19912;-84
2021/08/04 10:29:15;;;;;;;3.35;1.38;;;39.70;26.60;;;;;;5034819;28;20029;-85
2021/08/04 10:31:41;;;;;;;1.98;1.30;;;40.50;26.50;;;;;;5032353;28;20021;-85
2021/08/04 10:34:08;;;;;;;1.70;1.25;;;40.30;26.10;;;;;;5026605;28;20022;-86
2021/08/04 10:36:39;;;;;;;5.57;1.90;;;;;;;;;;5022945;28;20508;-87
2021/08/04 10:39:15;;;;;;;2.30;1.85;;;38.60;27.00;;;;;;5027891;28;20077;-88
2021/08/04 10:42:00;;;;;;;2.95;1.75;;;34.00;30.60;;;;;;5034150;28;20486;-85
2021/08/04 10:44:26;;;;;;;3.25;1.70;;;31.80;32.80;;;;;;5038819;28;20390;-84
2021/08/04 10:46:54;;;;;;;8.50;1.67;;;30.30;35.40;;;;;;5021006;28;20036;-84
2021/08/04 10:49:26;;;;;;;3.95;2.03;;;29.20;37.30;;;;;;5026670;28;20064;-85
2021/08/04 10:51:55;;;;;;;5.72;2.63;;;28.20;39.10;;;;;;5031877;28;20116;-84
2021/08/04 10:54:22;;;;;;;4.88;2.00;;;27.40;40.20;;;;;;5035792;28;20075;-85
2021/08/04 10:57:04;;;;;;;;;;;26.80;41.00;;;;;;5035965;28;20022;-85
2021/08/04 10:59:31;;;;;;;2.33;1.52;;;26.30;39.90;;;;;;5036818;28;20016;-86
2021/08/04 11:02:03;;;;;;;6.68;2.08;;;25.70;40.90;;;;;;5036827;28;20120;-84
2021/08/04 11:04:30;;;;;;;4.55;1.42;;;25.30;41.90;;;;;;5035832;28;20042;-85
2021/08/04 11:07:22;;;;;;;3.22;1.77;;;25.00;42.30;;;;;;5035223;28;20018;-84
2021/08/04 11:09:48;;;;;;;5.03;2.00;;;24.90;42.10;;;;;;5016053;28;20030;-85
2021/08/04 11:12:40;;;;;;;6.07;2.17;;;24.70;43.10;;;;;;5028032;28;20082;-85
2021/08/04 11:15:29;;;;;;;4.40;2.00;;;24.60;43.60;;;;;;5015598;28;20034;-84
2021/08/04 11:18:06;;;;;;;8.85;2.42;;;24.50;44.00;;;;;;5021605;28;20355;-85
2021/08/04 11:20:40;;;;;;;6.15;2.00;;;24.50;45.60;;;;;;5021694;28;20017;-84
2021/08/04 11:23:09;;;;;;;2.13;1.60;;;24.50;45.30;;;;;;5035017;28;20022;-83
2021/08/04 11:25:41;;;;;;;2.13;1.75;;;24.40;44.40;;;;;;5023930;28;20033;-84
2021/08/04 11:28:17;;;;;;;2.35;1.58;;;;;;;;;;5025733;28;20101;-85
2021/08/04 11:30:43;;;;;;;4.20;1.77;;;;;;;;;;5030662;28;20026;-84
2021/08/04 11:33:19;;;;;;;5.53;1.95;;;;;;;;;;5041913;28;20080;-84
2021/08/04 11:36:03;;;;;;;2.85;1.63;;;;;;;;;;5035396;28;20450;-86
2021/08/04 11:38:40;;;;;;;5.38;1.88;;;;;;;;;;5021105;28;20029;-87
2021/08/04 11:41:17;;;;;;;4.72;1.88;;;;;;;;;;5035916;28;20029;-85
2021/08/04 11:43:43;;;;;;;4.50;2.60;;;;;;;;;;5038368;28;20043;-85
2021/08/04 11:46:28;;;;;;;7.40;3.20;;;;;;;;;;5029173;28;20014;-87
2021/08/04 11:48:53;;;;;;;3.10;2.05;;;24.30;45.80;;;;;;5034845;28;20030;-85
2021/08/04 11:51:52;;;;;;;3.35;2.08;;;24.90;44.80;;;;;;5035497;28;20383;-87
2021/08/04 11:54:49;;;;;;;2.38;1.75;;;25.00;44.80;;;;;;5019931;28;20030;-85
2021/08/04 11:57:36;;;;;;;3.13;2.08;;;25.20;44.70;;;;;;5017029;28;20037;-84
2021/08/04 12:00:17;;;;;;;3.83;1.58;;;25.40;45.00;;;;;;5034472;28;20021;-84
2021/08/04 12:02:44;;;;;;;4.72;1.80;;;25.50;43.00;;;;;;5009962;28;20033;-85
2021/08/04 12:05:12;;;;;;;6.70;1.65;;;25.40;43.60;;;;;;5035937;28;20040;-83
2021/08/04 12:07:41;;;;;;;3.17;1.80;;;25.50;43.40;;;;;;5035666;28;20021;-85
2021/08/04 12:10:16;;;;;;;3.78;2.00;;;25.60;43.00;;;;;;5036498;28;20029;-84
2021/08/04 12:12:44;;;;;;;5.10;1.80;;;25.60;43.10;;;;;;5038123;28;20053;-85
2021/08/04 12:15:22;;;;;;;3.92;1.63;;;25.70;43.00;;;;;;5033397;28;20034;-85
2021/08/04 12:17:50;;;;;;;4.47;1.98;;;25.90;41.70;;;;;;5033219;28;20104;-85
2021/08/04 12:20:21;;;;;;;4.38;2.58;;;26.10;41.90;;;;;;5021384;28;20017;-85
2021/08/04 12:22:59;;;;;;;2.78;2.22;;;26.20;41.50;;;;;;5032527;28;20025;-85
2021/08/04 12:25:25;;;;;;;7.25;3.95;;;26.20;41.20;;;;;;5024127;28;20045;-86
2021/08/04 12:27:53;;;;;;;5.90;2.75;;;26.00;42.00;;;;;;5031522;28;20022;-85
2021/08/04 12:30:28;;;;;;;5.38;2.00;;;25.80;42.30;;;;;;5034257;28;20374;-83
2021/08/04 12:33:20;;;;;;;4.65;2.00;;;25.50;43.10;;;;;;5033331;28;20537;-84
2021/08/04 12:36:05;;;;;;;7.25;2.28;;;25.20;43.90;;;;;;5013003;28;20111;-85
2021/08/04 12:38:33;;;;;;;3.60;1.75;;;25.10;44.20;;;;;;5033508;28;20052;-84
2021/08/04 12:41:00;;;;;;;21.00;4.82;;;24.90;43.70;;;;;;5033828;28;20112;-83
2021/08/04 12:43:34;;;;;;;15.82;4.15;;;24.80;44.30;;;;;;5032992;28;20108;-84
2021/08/04 12:46:02;;;;;;;4.55;2.47;;;24.70;44.90;;;;;;5032751;28;20033;-85
2021/08/04 12:48:46;;;;;;;3.08;2.20;;;24.70;44.80;;;;;;5033286;28;20112;-84
2021/08/04 12:51:18;;;;;;;5.05;1.88;;;24.70;45.30;;;;;;5033584;28;20032;-85
2021/08/04 12:53:53;;;;;;;4.53;2.67;;;24.60;45.30;;;;;;5033416;28;20040;-84
2021/08/04 12:56:28;;;;;;;3.17;1.88;;;24.60;45.10;;;;;;5034011;28;20053;-85
2021/08/04 12:59:03;;;;;;;2.60;1.52;;;24.60;45.30;;;;;;5020099;28;20048;-83
2021/08/04 13:01:34;;;;;;;8.05;1.83;;;24.60;44.90;;;;;;5033564;28;20078;-86